Time;durP1;ratioP1;P1;durP2;ratioP2;P2;SDS_P1;SDS_P2;PMS_P1;PMS_P2;Temp;Humidity;BMP_temperature;BMP_pressure;BME280_temperature;BME280_humidity;BME280_pressure;Samples;Min_cycle;Max_cycle;Signal;HPM_P1;HPM_P2
2023/10/20 00:00:19;;;;;;;52.42;26.85;;;12.10;99.90;;;;;;5087808;28;20059;-88
2023/10/20 00:02:44;;;;;;;54.53;31.00;;;12.10;99.90;;;;;;5097996;28;20052;-88
2023/10/20 00:05:11;;;;;;;63.38;30.88;;;12.10;99.90;;;;;;5115888;27;20032;-88
2023/10/20 00:07:37;;;;;;;59.95;30.40;;;12.10;99.90;;;;;;5078384;28;20028;-87
2023/10/20 00:10:03;;;;;;;53.85;29.92;;;12.10;99.90;;;;;;5079477;28;20457;-88
2023/10/20 00:12:30;;;;;;;56.92;30.88;;;12.10;99.90;;;;;;5063839;28;20123;-87
2023/10/20 00:14:56;;;;;;;63.67;32.83;;;12.20;99.90;;;;;;5084188;28;20035;-87
2023/10/20 00:17:22;;;;;;;69.05;32.80;;;12.10;99.90;;;;;;5066550;28;20036;-88
2023/10/20 00:19:48;;;;;;;53.95;28.73;;;12.10;99.90;;;;;;5083093;28;20024;-88
2023/10/20 00:22:15;;;;;;;54.08;29.73;;;12.20;99.90;;;;;;5080394;28;20741;-89
2023/10/20 00:24:41;;;;;;;57.88;30.30;;;12.10;99.90;;;;;;5084623;28;20096;-86
2023/10/20 00:27:08;;;;;;;51.70;28.83;;;12.10;99.90;;;;;;5081224;28;20428;-88
2023/10/20 00:29:34;;;;;;;45.92;26.38;;;12.10;99.90;;;;;;5086851;28;20031;-87
2023/10/20 00:32:00;;;;;;;40.88;23.95;;;12.20;99.90;;;;;;5105837;28;20957;-87
2023/10/20 00:34:26;;;;;;;42.22;24.80;;;12.20;99.90;;;;;;5074824;28;20028;-87
2023/10/20 00:36:52;;;;;;;50.40;28.45;;;12.20;99.90;;;;;;5083642;28;20107;-89
2023/10/20 00:39:17;;;;;;;49.08;28.48;;;12.20;99.90;;;;;;5080936;28;20030;-88
2023/10/20 00:41:45;;;;;;;45.13;26.73;;;12.20;99.90;;;;;;5085247;28;20059;-88
2023/10/20 00:44:11;;;;;;;44.00;27.05;;;12.20;99.90;;;;;;5081956;28;20059;-88
2023/10/20 00:46:36;;;;;;;42.10;25.42;;;12.20;99.90;;;;;;5062362;28;20096;-87
2023/10/20 00:49:03;;;;;;;40.63;23.83;;;12.20;99.90;;;;;;5083556;28;20038;-88
2023/10/20 00:51:29;;;;;;;39.58;23.25;;;12.20;99.90;;;;;;5080908;28;20020;-88
2023/10/20 00:53:58;;;;;;;40.15;22.77;;;12.20;99.90;;;;;;5084881;28;20020;-88
2023/10/20 00:56:25;;;;;;;38.20;21.95;;;12.20;99.90;;;;;;5100645;28;20028;-87
2023/10/20 00:58:51;;;;;;;32.67;20.88;;;12.20;99.90;;;;;;5083999;28;20490;-87
2023/10/20 01:01:17;;;;;;;35.42;21.30;;;12.20;99.90;;;;;;5080260;28;20039;-87
2023/10/20 01:03:42;;;;;;;35.30;21.33;;;12.20;99.90;;;;;;5084794;28;20030;-86
2023/10/20 01:06:09;;;;;;;35.22;21.70;;;12.20;99.90;;;;;;5081254;28;20081;-86
2023/10/20 01:08:34;;;;;;;33.47;20.60;;;12.20;99.90;;;;;;5079167;28;20031;-86
2023/10/20 01:11:00;;;;;;;29.48;18.27;;;12.20;99.90;;;;;;5096390;28;20110;-85
2023/10/20 01:13:26;;;;;;;31.67;20.00;;;12.20;99.90;;;;;;5115221;27;20471;-86
2023/10/20 01:16:26;;;;;;;34.35;21.42;;;12.10;99.90;;;;;;5084090;28;20028;-87
2023/10/20 01:18:52;;;;;;;35.72;19.85;;;12.20;99.90;;;;;;5058555;28;20051;-87
2023/10/20 01:21:18;;;;;;;34.13;20.52;;;12.10;99.90;;;;;;5078659;28;20424;-86
2023/10/20 01:23:44;;;;;;;39.40;21.75;;;12.10;99.90;;;;;;5066795;28;20035;-86
2023/10/20 01:26:09;;;;;;;35.70;20.98;;;12.10;99.90;;;;;;5079506;28;20060;-86
2023/10/20 01:28:35;;;;;;;33.67;20.88;;;12.00;99.90;;;;;;5061957;28;20062;-87
2023/10/20 01:31:01;;;;;;;35.28;21.23;;;12.00;99.90;;;;;;5107148;28;20787;-87
2023/10/20 01:33:27;;;;;;;41.72;22.65;;;12.00;99.90;;;;;;5111299;27;20722;-87
2023/10/20 01:35:52;;;;;;;40.90;23.17;;;12.00;99.90;;;;;;5082196;28;20036;-87
2023/10/20 01:38:18;;;;;;;40.95;23.30;;;12.00;99.90;;;;;;5101117;28;20032;-87
2023/10/20 01:40:47;;;;;;;41.45;22.30;;;11.90;99.90;;;;;;5080699;28;20055;-87
2023/10/20 01:43:12;;;;;;;39.22;22.50;;;11.90;99.90;;;;;;5096680;28;20443;-87
2023/10/20 01:45:38;;;;;;;36.30;20.65;;;11.90;99.90;;;;;;5116888;27;20032;-86
2023/10/20 01:48:04;;;;;;;32.03;21.08;;;11.90;99.90;;;;;;5079525;28;20364;-86
2023/10/20 01:50:30;;;;;;;40.90;21.90;;;11.90;99.90;;;;;;5084754;28;20032;-87
2023/10/20 01:52:56;;;;;;;38.47;21.83;;;11.90;99.90;;;;;;5063944;28;20137;-87
2023/10/20 01:55:21;;;;;;;44.55;24.05;;;11.90;99.90;;;;;;5077257;28;20115;-88
2023/10/20 01:57:47;;;;;;;49.72;25.70;;;11.90;99.90;;;;;;5066530;28;20486;-87
2023/10/20 02:00:13;;;;;;;45.40;25.00;;;11.90;99.90;;;;;;5078668;28;20148;-87
2023/10/20 02:02:40;;;;;;;42.75;24.70;;;11.90;99.90;;;;;;5068898;28;20035;-86
2023/10/20 02:05:09;;;;;;;40.08;22.98;;;11.90;99.90;;;;;;5079864;28;20032;-87
2023/10/20 02:07:36;;;;;;;37.80;22.17;;;11.80;99.90;;;;;;5079843;28;20367;-87
2023/10/20 02:10:02;;;;;;;36.90;23.02;;;11.80;99.90;;;;;;5078513;28;20032;-86
2023/10/20 02:12:28;;;;;;;37.08;21.80;;;11.80;99.90;;;;;;5080633;28;20024;-87
2023/10/20 02:14:53;;;;;;;38.47;22.17;;;11.80;99.90;;;;;;5081554;28;20032;-86
2023/10/20 02:17:20;;;;;;;38.30;22.60;;;11.90;99.90;;;;;;5078288;28;20057;-86
2023/10/20 02:19:45;;;;;;;42.67;22.50;;;11.80;99.90;;;;;;5045474;28;20455;-87
2023/10/20 02:22:12;;;;;;;39.83;22.52;;;11.80;99.90;;;;;;5111815;27;20028;-88
2023/10/20 02:24:38;;;;;;;40.88;23.17;;;11.80;99.90;;;;;;5064634;28;20386;-87
2023/10/20 02:27:04;;;;;;;43.33;23.67;;;11.80;99.90;;;;;;5069990;28;20107;-88
2023/10/20 02:29:29;;;;;;;39.15;23.02;;;11.80;99.90;;;;;;5066101;28;20028;-88
2023/10/20 02:31:55;;;;;;;42.22;23.17;;;11.70;99.90;;;;;;5080220;28;20024;-89
2023/10/20 02:34:22;;;;;;;45.03;25.58;;;11.80;99.90;;;;;;5080057;28;20028;-89
2023/10/20 02:36:49;;;;;;;49.75;25.77;;;11.80;99.90;;;;;;5093672;28;20101;-88
2023/10/20 02:39:15;;;;;;;45.72;26.23;;;11.70;99.90;;;;;;5077148;28;20791;-88
2023/10/20 02:41:41;;;;;;;49.75;28.05;;;11.70;99.90;;;;;;5061602;28;20032;-87
2023/10/20 02:44:07;;;;;;;47.60;26.23;;;11.70;99.90;;;;;;5099540;28;20079;-89
2023/10/20 02:46:33;;;;;;;51.67;27.80;;;11.60;99.90;;;;;;5080381;28;20159;-88
2023/10/20 02:48:58;;;;;;;50.58;27.25;;;11.70;99.90;;;;;;5062271;28;20771;-87
2023/10/20 02:51:25;;;;;;;49.08;25.95;;;11.70;99.90;;;;;;5077098;28;20059;-88
2023/10/20 02:53:50;;;;;;;46.63;26.75;;;11.60;99.90;;;;;;5082395;28;20454;-88
2023/10/20 02:56:18;;;;;;;47.70;26.08;;;11.60;99.90;;;;;;5062548;28;20032;-88
2023/10/20 03:02:31;;;;;;;47.35;25.00;;;11.60;99.90;;;;;;5092051;28;20044;-88
2023/10/20 03:04:57;;;;;;;46.10;25.23;;;11.60;99.90;;;;;;5096098;28;20139;-88
2023/10/20 03:07:27;;;;;;;41.58;23.50;;;11.60;99.90;;;;;;5067415;28;20028;-88
2023/10/20 03:09:53;;;;;;;44.53;24.30;;;11.60;99.90;;;;;;5077513;28;20471;-88
2023/10/20 03:12:19;;;;;;;44.83;23.15;;;11.60;99.90;;;;;;5063537;28;20036;-88
2023/10/20 03:14:45;;;;;;;42.15;23.77;;;11.70;99.90;;;;;;5078595;28;20625;-88
2023/10/20 03:17:11;;;;;;;42.63;21.40;;;11.60;99.90;;;;;;5078321;28;20028;-88
2023/10/20 03:19:40;;;;;;;39.58;21.90;;;11.60;99.90;;;;;;5083704;28;20032;-87
2023/10/20 03:22:05;;;;;;;39.15;21.58;;;11.70;99.90;;;;;;5079870;28;20063;-87
2023/10/20 03:24:32;;;;;;;43.13;23.33;;;11.60;99.90;;;;;;5094021;28;20060;-88
2023/10/20 03:26:58;;;;;;;41.55;21.55;;;11.70;99.90;;;;;;5082370;28;20020;-88
2023/10/20 03:29:25;;;;;;;40.60;23.05;;;11.60;99.90;;;;;;5078016;28;20081;-88
2023/10/20 03:31:51;;;;;;;46.60;24.15;;;11.60;99.90;;;;;;5085191;28;20549;-88
2023/10/20 03:34:16;;;;;;;41.08;23.50;;;11.70;99.90;;;;;;5097486;28;20108;-88
2023/10/20 03:36:43;;;;;;;42.60;22.27;;;11.60;99.90;;;;;;5062096;28;20089;-87
2023/10/20 03:39:43;;;;;;;43.60;23.35;;;11.60;99.90;;;;;;5080809;28;20024;-88
2023/10/20 03:42:02;;;;;;;44.65;23.00;;;11.60;99.90;;;;;;5073002;28;20028;-88
2023/10/20 03:44:28;;;;;;;42.72;23.45;;;11.60;99.90;;;;;;5079242;28;20024;-88
2023/10/20 03:46:56;;;;;;;41.22;21.42;;;11.60;99.90;;;;;;5076764;28;20570;-87
2023/10/20 03:53:12;;;;;;;43.65;21.30;;;11.60;99.90;;;;;;5096930;28;20587;-88
2023/10/20 03:55:37;;;;;;;42.10;22.80;;;11.50;99.90;;;;;;5084454;28;20114;-88
2023/10/20 03:58:03;;;;;;;42.92;22.95;;;11.60;99.90;;;;;;5062450;28;20059;-88
2023/10/20 04:00:29;;;;;;;46.85;23.92;;;11.50;99.90;;;;;;5086284;28;20066;-88
2023/10/20 04:02:56;;;;;;;40.28;22.27;;;11.50;99.90;;;;;;5082009;28;20475;-88
2023/10/20 04:05:22;;;;;;;40.92;22.13;;;11.50;99.90;;;;;;5083074;28;20028;-88
2023/10/20 04:07:49;;;;;;;39.83;22.25;;;11.50;99.90;;;;;;5080500;28;20024;-89
2023/10/20 04:10:15;;;;;;;42.28;22.88;;;11.50;99.90;;;;;;5085427;28;20024;-88
2023/10/20 04:12:41;;;;;;;37.72;23.42;;;11.50;99.90;;;;;;5075862;28;20387;-89
2023/10/20 04:15:15;;;;;;;42.72;22.92;;;11.50;99.90;;;;;;5114242;27;20067;-87
2023/10/20 04:17:51;;;;;;;46.45;23.55;;;11.50;99.90;;;;;;5086952;28;20402;-89
2023/10/20 04:20:18;;;;;;;39.15;22.58;;;11.50;99.90;;;;;;5073242;28;20032;-89
2023/10/20 04:22:49;;;;;;;41.65;23.75;;;11.50;99.90;;;;;;5085748;28;20418;-89
2023/10/20 04:25:19;;;;;;;40.85;23.02;;;11.50;99.90;;;;;;5081413;28;20024;-89
2023/10/20 04:27:57;;;;;;;40.90;23.77;;;11.50;99.90;;;;;;5087256;28;20023;-89
2023/10/20 05:07:52;;;;;;;66.93;34.40;;;11.40;99.90;;;;;;5114102;27;20740;-87
2023/10/20 05:10:21;;;;;;;82.03;36.35;;;11.40;99.90;;;;;;5081460;28;20020;-87
2023/10/20 05:12:48;;;;;;;70.75;37.03;;;11.40;99.90;;;;;;5079503;28;20035;-87
2023/10/20 05:15:14;;;;;;;78.78;37.58;;;11.30;99.90;;;;;;5078548;28;20405;-87
2023/10/20 05:17:40;;;;;;;80.95;40.58;;;11.30;99.90;;;;;;5084400;28;20039;-88
2023/10/20 05:20:12;;;;;;;89.88;41.53;;;11.30;99.90;;;;;;5078303;28;20036;-88
2023/10/20 05:22:40;;;;;;;94.00;42.97;;;11.30;99.90;;;;;;5098067;28;20031;-87
2023/10/20 05:25:07;;;;;;;85.95;41.35;;;11.30;99.90;;;;;;5083318;28;20490;-87
2023/10/20 05:27:32;;;;;;;79.13;38.22;;;11.20;99.90;;;;;;5077739;28;20047;-87
2023/10/20 05:29:58;;;;;;;84.35;41.55;;;11.20;99.90;;;;;;5068517;28;20104;-88
2023/10/20 05:32:24;;;;;;;84.00;40.38;;;11.20;99.90;;;;;;5078883;28;20028;-89
2023/10/20 05:34:54;;;;;;;83.95;39.50;;;11.20;99.90;;;;;;5063173;28;20045;-87
2023/10/20 05:37:22;;;;;;;79.47;38.92;;;11.20;99.90;;;;;;5078962;28;20120;-87
2023/10/20 05:39:48;;;;;;;81.72;36.53;;;11.10;99.90;;;;;;5080149;28;20027;-87
2023/10/20 05:42:14;;;;;;;72.07;33.67;;;11.20;99.90;;;;;;5079322;28;20115;-87
2023/10/20 05:47:24;;;;;;;59.17;29.38;;;11.20;99.90;;;;;;5097983;28;20092;-88
2023/10/20 05:49:50;;;;;;;50.30;22.92;;;11.30;99.90;;;;;;5082843;28;20036;-88
2023/10/20 05:52:15;;;;;;;46.28;23.83;;;11.30;99.90;;;;;;5097436;27;20495;-87
2023/10/20 05:54:42;;;;;;;57.50;23.25;;;11.40;99.90;;;;;;5069926;28;20077;-88
2023/10/20 05:57:08;;;;;;;43.05;22.02;;;11.40;99.90;;;;;;5078310;28;20081;-86
2023/10/20 05:59:33;;;;;;;40.83;20.55;;;11.50;99.90;;;;;;5064556;28;20032;-88
2023/10/20 06:01:59;;;;;;;47.22;21.17;;;11.50;99.90;;;;;;5078252;28;20379;-87
2023/10/20 06:04:25;;;;;;;35.47;17.75;;;11.60;99.90;;;;;;5083781;28;20032;-87
2023/10/20 06:06:51;;;;;;;36.38;18.10;;;11.60;99.90;;;;;;5089112;28;20016;-87
2023/10/20 06:09:16;;;;;;;33.13;17.42;;;11.60;99.90;;;;;;5062119;28;20019;-86
2023/10/20 06:11:42;;;;;;;38.15;17.15;;;11.70;99.90;;;;;;5075154;28;20085;-86
2023/10/20 06:14:08;;;;;;;35.95;17.20;;;11.70;99.90;;;;;;5074586;28;20057;-87
2023/10/20 06:16:34;;;;;;;30.75;16.73;;;11.80;99.90;;;;;;5095039;28;20028;-87
2023/10/20 06:19:00;;;;;;;31.23;16.63;;;11.80;99.90;;;;;;5056679;28;20726;-87
2023/10/20 06:21:26;;;;;;;28.13;14.63;;;11.80;99.90;;;;;;5063215;28;20377;-86
2023/10/20 06:23:52;;;;;;;26.50;12.80;;;11.80;99.90;;;;;;5070895;28;20154;-86
2023/10/20 06:26:18;;;;;;;22.13;12.15;;;11.90;99.90;;;;;;5093616;28;20024;-87
2023/10/20 06:28:44;;;;;;;22.02;12.05;;;12.00;99.90;;;;;;5091506;28;20020;-87
2023/10/20 06:31:27;;;;;;;21.75;11.73;;;12.00;99.90;;;;;;5078547;28;21266;-86
2023/10/20 06:36:40;;;;;;;20.88;11.80;;;12.00;99.90;;;;;;5120148;27;20780;-88
2023/10/20 06:39:06;;;;;;;18.58;10.68;;;12.10;99.90;;;;;;5113892;27;20020;-86
2023/10/20 06:41:32;;;;;;;21.33;12.13;;;12.00;99.90;;;;;;5063065;28;20034;-86
2023/10/20 06:43:57;;;;;;;21.20;11.82;;;12.10;99.90;;;;;;5079444;28;20031;-87
2023/10/20 06:46:23;;;;;;;22.38;12.80;;;12.00;99.90;;;;;;5056493;28;20039;-88
2023/10/20 06:48:49;;;;;;;21.35;11.93;;;12.10;99.90;;;;;;5074345;28;20073;-88
2023/10/20 06:51:15;;;;;;;23.30;12.50;;;12.10;99.90;;;;;;5053799;28;20360;-87
2023/10/20 06:53:40;;;;;;;20.33;12.35;;;12.10;99.90;;;;;;5069704;28;20371;-87
2023/10/20 06:56:09;;;;;;;21.10;12.55;;;12.10;99.90;;;;;;5061602;28;20073;-87
2023/10/20 06:58:35;;;;;;;22.48;11.85;;;12.10;99.90;;;;;;5043287;28;20029;-86
2023/10/20 07:01:05;;;;;;;21.52;11.02;;;12.20;99.90;;;;;;5069699;28;20043;-87
2023/10/20 07:04:21;;;;;;;25.48;11.40;;;12.20;99.90;;;;;;5058813;28;20032;-87
2023/10/20 07:06:49;;;;;;;19.33;10.85;;;12.20;99.90;;;;;;5062542;28;20029;-87
2023/10/20 07:09:14;;;;;;;15.55;9.68;;;12.20;99.90;;;;;;5084991;28;20131;-88
2023/10/20 07:12:27;;;;;;;15.65;10.27;;;12.30;99.90;;;;;;5057970;28;20059;-87
2023/10/20 07:14:53;;;;;;;16.85;10.27;;;12.30;99.90;;;;;;5050066;28;20033;-87
2023/10/20 07:17:18;;;;;;;14.93;9.00;;;12.30;99.90;;;;;;5101107;28;20029;-86
2023/10/20 07:19:44;;;;;;;13.15;7.53;;;12.40;99.90;;;;;;5085068;28;20099;-88
2023/10/20 07:22:10;;;;;;;10.43;6.50;;;12.50;99.90;;;;;;5063828;28;20086;-88
2023/10/20 07:24:35;;;;;;;9.55;6.10;;;12.60;99.90;;;;;;5115778;27;20105;-88
2023/10/20 07:27:05;;;;;;;11.32;6.28;;;12.70;99.90;;;;;;5121700;27;20458;-87
2023/10/20 07:29:31;;;;;;;9.07;5.75;;;12.80;99.90;;;;;;5100919;28;20024;-87
2023/10/20 07:31:58;;;;;;;7.65;5.78;;;12.80;99.90;;;;;;5089454;27;20034;-88
2023/10/20 07:34:25;;;;;;;6.43;5.10;;;12.90;99.90;;;;;;5099810;28;20039;-88
2023/10/20 07:36:51;;;;;;;9.40;5.68;;;12.90;99.90;;;;;;5122104;27;20028;-88
2023/10/20 07:39:17;;;;;;;8.93;4.85;;;12.90;99.90;;;;;;5125833;27;20486;-88
2023/10/20 07:41:47;;;;;;;9.13;5.30;;;13.00;99.90;;;;;;5086825;28;20027;-88
2023/10/20 07:44:15;;;;;;;9.60;6.82;;;13.10;99.90;;;;;;5064255;28;20040;-87
2023/10/20 07:46:42;;;;;;;8.95;5.70;;;13.10;99.90;;;;;;5074012;28;20016;-87
2023/10/20 07:49:11;;;;;;;7.43;4.95;;;13.20;99.90;;;;;;5099914;28;20031;-88
2023/10/20 07:51:40;;;;;;;8.68;6.22;;;13.30;99.90;;;;;;5088370;28;20024;-87
2023/10/20 07:54:10;;;;;;;7.35;6.00;;;13.20;99.90;;;;;;5067041;28;20028;-87
2023/10/20 07:56:36;;;;;;;12.07;6.55;;;13.30;99.90;;;;;;5098814;28;20030;-88
2023/10/20 07:59:01;;;;;;;13.40;7.25;;;13.20;99.90;;;;;;5084171;28;20036;-87
2023/10/20 08:01:27;;;;;;;10.73;6.00;;;13.20;99.90;;;;;;5103684;28;20032;-88
2023/10/20 08:03:53;;;;;;;12.30;7.00;;;13.20;99.90;;;;;;5069257;28;20028;-86
2023/10/20 08:06:45;;;;;;;9.15;6.90;;;13.10;99.90;;;;;;5073676;28;20107;-87
2023/10/20 08:09:12;;;;;;;10.82;7.35;;;13.20;99.90;;;;;;5099325;28;20119;-88
2023/10/20 08:11:39;;;;;;;9.52;6.30;;;13.20;99.90;;;;;;5068403;28;20034;-87
2023/10/20 08:14:05;;;;;;;10.00;6.72;;;13.30;99.90;;;;;;5067544;28;20478;-89
2023/10/20 08:16:31;;;;;;;9.63;6.30;;;13.40;99.90;;;;;;5095508;28;20079;-88
2023/10/20 08:18:56;;;;;;;11.77;6.75;;;13.40;99.90;;;;;;5085657;28;20039;-89
2023/10/20 08:21:29;;;;;;;12.10;7.43;;;13.40;99.90;;;;;;5115305;27;20067;-88
2023/10/20 08:23:58;;;;;;;13.30;7.32;;;13.40;99.90;;;;;;5104407;28;20419;-88
2023/10/20 08:26:23;;;;;;;14.13;8.10;;;13.40;99.90;;;;;;5082016;28;20047;-88
2023/10/20 08:28:50;;;;;;;13.85;8.73;;;13.30;99.90;;;;;;5064663;28;20012;-88
2023/10/20 08:31:19;;;;;;;14.10;8.63;;;13.20;99.90;;;;;;5073497;28;20024;-88
2023/10/20 08:33:45;;;;;;;13.55;9.73;;;13.10;99.90;;;;;;5067192;28;20047;-87
2023/10/20 08:36:21;;;;;;;14.43;10.13;;;13.00;99.90;;;;;;5089669;28;20478;-88
2023/10/20 08:38:48;;;;;;;16.17;11.73;;;13.00;99.90;;;;;;5083104;28;20028;-88
2023/10/20 08:41:20;;;;;;;15.80;10.85;;;12.90;99.90;;;;;;5072857;28;20116;-88
2023/10/20 08:43:46;;;;;;;19.08;13.02;;;12.80;99.90;;;;;;5077937;28;20032;-87
2023/10/20 08:46:15;;;;;;;20.85;14.20;;;12.60;99.90;;;;;;5072304;28;20470;-87
2023/10/20 08:48:43;;;;;;;22.40;14.45;;;12.60;99.90;;;;;;5077938;28;20403;-87
2023/10/20 08:51:11;;;;;;;21.58;14.63;;;12.60;99.90;;;;;;5080976;28;20024;-88
2023/10/20 08:53:37;;;;;;;22.75;15.55;;;12.50;99.90;;;;;;5064551;28;20030;-87
2023/10/20 08:56:04;;;;;;;25.10;15.98;;;12.50;99.90;;;;;;5083716;28;20027;-87
2023/10/20 08:58:31;;;;;;;22.50;15.85;;;12.40;99.90;;;;;;5064480;28;20032;-88
2023/10/20 09:00:57;;;;;;;27.83;17.63;;;12.30;99.90;;;;;;5066213;28;20037;-87
2023/10/20 09:03:25;;;;;;;30.90;19.75;;;12.30;99.90;;;;;;5068047;28;20131;-87
2023/10/20 09:06:14;;;;;;;28.90;19.65;;;12.20;99.90;;;;;;5085739;28;20024;-87
2023/10/20 09:08:41;;;;;;;31.52;19.88;;;12.20;99.90;;;;;;5064805;28;20021;-87
2023/10/20 09:11:11;;;;;;;33.05;20.40;;;12.20;99.90;;;;;;5072606;28;20028;-86
2023/10/20 09:13:39;;;;;;;32.75;20.52;;;12.20;99.90;;;;;;5089100;28;20038;-87
2023/10/20 09:16:08;;;;;;;27.23;19.20;;;12.20;99.90;;;;;;5083114;28;20032;-86
2023/10/20 09:18:48;;;;;;;31.38;20.05;;;12.30;99.90;;;;;;5072803;28;20118;-87
2023/10/20 09:21:15;;;;;;;30.73;19.38;;;12.30;99.90;;;;;;5086891;28;20036;-87
2023/10/20 09:24:07;;;;;;;33.92;21.13;;;12.30;99.90;;;;;;5082491;28;20028;-87
2023/10/20 09:26:38;;;;;;;33.10;20.63;;;12.30;99.90;;;;;;5081630;28;20023;-88
2023/10/20 09:29:07;;;;;;;33.95;23.05;;;12.30;99.90;;;;;;5083875;28;20542;-87
2023/10/20 09:31:34;;;;;;;33.25;22.23;;;12.30;99.90;;;;;;5087075;28;20032;-87
2023/10/20 09:34:00;;;;;;;33.35;22.05;;;12.40;99.90;;;;;;5075966;28;20040;-87
2023/10/20 09:36:30;;;;;;;36.40;23.10;;;12.40;99.90;;;;;;5051984;28;20032;-86
2023/10/20 09:38:57;;;;;;;34.25;22.92;;;12.70;99.90;;;;;;5062231;28;20036;-87
2023/10/20 09:41:25;;;;;;;32.25;21.50;;;12.70;99.90;;;;;;5081203;28;20031;-86
2023/10/20 09:43:53;;;;;;;37.30;22.70;;;12.80;99.90;;;;;;5086595;28;20063;-86
2023/10/20 09:46:18;;;;;;;34.50;22.17;;;12.90;99.90;;;;;;5063394;28;20367;-87
2023/10/20 09:48:47;;;;;;;36.17;23.00;;;12.90;99.90;;;;;;5074263;28;20016;-87
2023/10/20 09:51:15;;;;;;;39.45;24.30;;;13.10;99.90;;;;;;5097761;28;20467;-87
2023/10/20 09:53:43;;;;;;;33.67;22.85;;;13.10;99.90;;;;;;5073819;28;20036;-87
2023/10/20 09:56:10;;;;;;;44.33;23.50;;;13.10;99.90;;;;;;5067711;28;20040;-85
2023/10/20 09:58:40;;;;;;;36.83;24.25;;;13.10;99.90;;;;;;5074257;28;20035;-85
2023/10/20 10:01:06;;;;;;;34.63;23.42;;;13.10;99.90;;;;;;5080821;28;20034;-85
2023/10/20 10:03:51;;;;;;;35.17;24.13;;;13.30;99.90;;;;;;5066015;28;20027;-86
2023/10/20 10:06:55;;;;;;;32.10;22.65;;;13.50;99.90;;;;;;5078156;28;20040;-87
2023/10/20 10:09:22;;;;;;;29.60;20.27;;;13.50;99.90;;;;;;5091473;28;20043;-87
2023/10/20 10:11:57;;;;;;;28.15;21.30;;;13.60;99.90;;;;;;5083091;28;20364;-87
2023/10/20 10:14:41;;;;;;;26.58;19.52;;;13.80;99.90;;;;;;5071017;28;20055;-86
2023/10/20 10:17:10;;;;;;;30.42;21.58;;;13.90;99.90;;;;;;5065550;28;20114;-87
2023/10/20 10:19:50;;;;;;;28.33;18.27;;;14.10;99.90;;;;;;5074264;28;20036;-86
2023/10/20 10:22:17;;;;;;;27.63;18.92;;;14.40;99.90;;;;;;5080109;28;20032;-87
2023/10/20 10:24:54;;;;;;;28.75;18.95;;;14.70;99.90;;;;;;5076554;28;20467;-87
2023/10/20 10:27:22;;;;;;;24.75;17.70;;;14.90;99.90;;;;;;5078363;28;20054;-87
2023/10/20 10:29:59;;;;;;;26.67;16.92;;;14.80;99.90;;;;;;5105861;28;20024;-87
2023/10/20 10:32:33;;;;;;;27.85;17.50;;;14.60;99.90;;;;;;5092264;28;20540;-87
2023/10/20 10:35:01;;;;;;;24.30;16.42;;;14.70;99.90;;;;;;5086629;28;20375;-87
2023/10/20 10:37:32;;;;;;;28.13;18.75;;;14.60;99.90;;;;;;5092282;28;20034;-87
2023/10/20 10:40:13;;;;;;;31.05;17.95;;;14.50;99.90;;;;;;5066039;28;20075;-87
2023/10/20 10:46:05;;;;;;;25.27;18.13;;;14.10;99.90;;;;;;5081475;28;20437;-87
2023/10/20 10:48:33;;;;;;;24.50;17.95;;;14.40;99.90;;;;;;5078359;28;20040;-87
2023/10/20 10:51:01;;;;;;;29.73;19.20;;;14.40;99.90;;;;;;5067017;28;20118;-87
2023/10/20 10:53:27;;;;;;;26.88;18.17;;;14.40;99.90;;;;;;5074343;28;20147;-87
2023/10/20 10:55:54;;;;;;;26.27;17.90;;;14.40;99.90;;;;;;5068678;28;20056;-87
2023/10/20 10:58:20;;;;;;;26.15;17.85;;;14.40;99.90;;;;;;5059547;28;20039;-86
2023/10/20 11:00:46;;;;;;;24.73;17.48;;;14.40;99.90;;;;;;5062500;28;20016;-87
2023/10/20 11:03:13;;;;;;;25.13;18.60;;;14.50;99.90;;;;;;5081259;28;20028;-87
2023/10/20 11:05:39;;;;;;;26.77;19.00;;;14.60;99.90;;;;;;5069242;28;20031;-87
2023/10/20 11:08:10;;;;;;;26.70;18.30;;;14.70;99.90;;;;;;5058200;28;20024;-87
2023/10/20 11:10:40;;;;;;;22.40;16.90;;;14.90;99.90;;;;;;5083875;28;20077;-86
2023/10/20 11:13:10;;;;;;;19.63;14.68;;;15.00;99.90;;;;;;5076969;28;20032;-87
2023/10/20 11:15:40;;;;;;;23.42;13.48;;;15.00;99.90;;;;;;5082885;28;20067;-87
2023/10/20 11:18:07;;;;;;;17.75;13.10;;;15.00;99.90;;;;;;5077112;28;20077;-87
2023/10/20 11:20:40;;;;;;;18.50;11.80;;;15.00;99.90;;;;;;5085554;28;20103;-87
2023/10/20 11:23:08;;;;;;;15.35;11.40;;;15.20;99.90;;;;;;5079841;28;20050;-87
2023/10/20 11:25:37;;;;;;;16.70;11.90;;;15.50;99.90;;;;;;5077577;28;20025;-87
2023/10/20 11:28:03;;;;;;;20.65;11.38;;;15.60;99.90;;;;;;5107334;28;20023;-87
2023/10/20 11:30:34;;;;;;;14.70;10.63;;;16.00;99.90;;;;;;5086429;28;20032;-88
2023/10/20 11:33:01;;;;;;;13.55;10.68;;;16.00;99.90;;;;;;5079566;28;20042;-87
2023/10/20 11:35:27;;;;;;;18.30;12.20;;;16.00;99.90;;;;;;5077077;28;20445;-87
2023/10/20 11:37:57;;;;;;;17.88;11.60;;;15.80;99.90;;;;;;5084877;28;20024;-87
2023/10/20 11:40:26;;;;;;;18.63;10.63;;;15.60;99.90;;;;;;5076849;28;20503;-87
2023/10/20 11:42:52;;;;;;;16.95;11.75;;;15.40;99.90;;;;;;5085719;28;20069;-86
2023/10/20 11:45:18;;;;;;;17.88;11.40;;;15.10;99.90;;;;;;5076197;28;20099;-87
2023/10/20 11:47:43;;;;;;;18.15;11.80;;;14.80;99.90;;;;;;5079964;28;20026;-87
2023/10/20 11:50:18;;;;;;;16.40;11.30;;;14.60;99.90;;;;;;5081892;28;20032;-87
2023/10/20 11:52:45;;;;;;;16.70;12.02;;;14.50;99.90;;;;;;5070786;28;20028;-87
2023/10/20 11:55:11;;;;;;;16.38;11.65;;;14.30;99.90;;;;;;5064585;28;20032;-87
2023/10/20 11:57:40;;;;;;;16.83;11.45;;;14.30;99.90;;;;;;5066973;28;20034;-87
2023/10/20 12:00:10;;;;;;;16.17;12.27;;;14.40;99.90;;;;;;5075538;28;20106;-87
2023/10/20 12:02:39;;;;;;;14.65;10.60;;;14.50;99.90;;;;;;5083898;28;20796;-87
2023/10/20 12:05:08;;;;;;;14.80;10.65;;;14.70;99.90;;;;;;5073217;28;20777;-87
2023/10/20 12:07:43;;;;;;;19.00;10.75;;;14.70;99.90;;;;;;5064604;28;20027;-87
2023/10/20 12:10:09;;;;;;;13.32;10.32;;;14.50;99.90;;;;;;5082764;28;20169;-87
2023/10/20 12:12:34;;;;;;;14.35;9.93;;;14.50;99.90;;;;;;5082611;28;20032;-87
2023/10/20 12:15:00;;;;;;;12.95;10.20;;;14.50;99.90;;;;;;5065596;28;20770;-87
2023/10/20 12:17:26;;;;;;;15.63;9.80;;;14.60;99.90;;;;;;5063320;28;20564;-87
2023/10/20 12:19:52;;;;;;;18.00;9.70;;;14.50;99.90;;;;;;5087499;28;20065;-87
2023/10/20 12:22:17;;;;;;;13.23;8.63;;;14.40;99.90;;;;;;5062201;28;20103;-87
2023/10/20 12:24:55;;;;;;;14.90;9.77;;;14.50;99.90;;;;;;5123973;27;20124;-87
2023/10/20 12:27:21;;;;;;;11.23;8.52;;;14.50;99.90;;;;;;5053023;28;20694;-87
2023/10/20 12:29:47;;;;;;;11.60;8.77;;;14.70;99.90;;;;;;5081618;28;20049;-87
2023/10/20 12:32:12;;;;;;;13.25;7.82;;;14.90;99.90;;;;;;5107132;27;20041;-87
2023/10/20 12:34:50;;;;;;;12.02;8.32;;;14.90;99.90;;;;;;5100210;27;20538;-86
2023/10/20 12:37:17;;;;;;;9.20;7.88;;;14.80;99.90;;;;;;5109185;28;20028;-87
2023/10/20 12:39:43;;;;;;;12.32;8.68;;;14.70;99.90;;;;;;5063753;28;20021;-89
2023/10/20 12:42:08;;;;;;;11.63;7.63;;;14.70;99.90;;;;;;5077633;28;20035;-87
2023/10/20 12:44:34;;;;;;;12.93;8.35;;;14.60;99.90;;;;;;5075066;28;20824;-87
2023/10/20 12:47:00;;;;;;;10.98;9.40;;;14.50;99.90;;;;;;5113080;28;20035;-87
2023/10/20 12:49:25;;;;;;;15.15;9.95;;;14.50;99.90;;;;;;5063558;28;20032;-87
2023/10/20 12:51:51;;;;;;;15.07;9.05;;;14.50;99.90;;;;;;5059470;28;20031;-86
2023/10/20 12:54:17;;;;;;;13.25;8.50;;;14.50;99.90;;;;;;5093924;28;20039;-87
2023/10/20 12:56:42;;;;;;;12.05;8.30;;;14.70;99.90;;;;;;5076505;28;20019;-87
2023/10/20 12:59:08;;;;;;;18.70;8.30;;;14.90;99.90;;;;;;5101748;28;20093;-87
2023/10/20 13:01:35;;;;;;;15.43;8.25;;;14.90;99.90;;;;;;5062016;28;20028;-87
2023/10/20 13:04:00;;;;;;;9.80;7.75;;;14.90;99.90;;;;;;5094484;28;20045;-87
2023/10/20 13:06:26;;;;;;;15.52;9.50;;;15.00;99.90;;;;;;5109814;28;20024;-88
2023/10/20 13:08:52;;;;;;;9.88;7.22;;;15.10;99.90;;;;;;5110811;27;20391;-87
2023/10/20 13:11:17;;;;;;;7.60;6.25;;;15.10;99.90;;;;;;5083942;28;20020;-87
2023/10/20 13:13:43;;;;;;;13.75;6.78;;;15.10;99.90;;;;;;5075327;28;20032;-87
2023/10/20 13:16:09;;;;;;;9.02;5.10;;;15.10;99.90;;;;;;5075547;28;20020;-87
2023/10/20 13:18:38;;;;;;;6.78;5.85;;;15.10;99.90;;;;;;5081887;28;20115;-86
2023/10/20 13:21:07;;;;;;;6.53;5.32;;;15.20;99.90;;;;;;5077297;28;20024;-85
2023/10/20 13:23:33;;;;;;;6.78;5.40;;;15.30;99.90;;;;;;5073835;28;20036;-86
2023/10/20 13:26:06;;;;;;;7.43;4.53;;;15.30;99.90;;;;;;5059460;28;20020;-86
2023/10/20 13:28:35;;;;;;;9.90;5.95;;;15.30;99.90;;;;;;5074195;28;20390;-86